Malaysia Virtual Airlines Airport Information Service

Prince Mohammad Bin Abdulaziz Airport

ICAO: OEMA Country: Saudi Arabia
Latitude: 24.5534 Longitude: 39.7051
Latest Arrival : MH158 (WMKK-OEMA) Latest Departure : MH8203 (OEMA-WMKK)


WX CaptureLIVE
Data provided by noaa.gov | Fetched at 05:15:57

METAR : OEMA 290500Z 05012KT CAVOK 21/02 Q1023 NOSIG

TAF : OEMA 282300Z 2900/3006 06008KT CAVOK BECMG 2906/2908 10010KT BECMG 2918/2920 06006KT


Runway Data for OEMA
Data provided by openaviationdata.com

Runway ID Mag Var Hdg Length Elevation Surface ILS Freq ILS Id ILS Slope
17 2 167° 12657 ft 2076 ft Asphalt 111.7 INAH 3
18 2 181° 10038 ft 2076 ft Asphalt -- -- --
35 2 347° 12657 ft 2076 ft Asphalt 111.3 IDIN 3
36 2 10038 ft 2076 ft Asphalt 110.5 IPMA 3

Prince Mohammad Bin Abdulaziz Airport, Saudi Arabia
Use only for reference purposes



Not for navigational purposes.